Time;durP1;ratioP1;P1;durP2;ratioP2;P2;SDS_P1;SDS_P2;PMS_P1;PMS_P2;Temp;Humidity;BMP_temperature;BMP_pressure;BME280_temperature;BME280_humidity;BME280_pressure;Samples;Min_cycle;Max_cycle;Signal;HPM_P1;HPM_P2
2023/12/16 00:01:23;;;;;;;18.90;9.07;;;10.70;72.30;;;;;;5053688;28;20481;-66
2023/12/16 00:03:49;;;;;;;21.60;9.65;;;10.70;72.30;;;;;;5055633;28;20029;-65
2023/12/16 00:06:18;;;;;;;17.80;8.70;;;10.70;72.20;;;;;;5073524;28;20055;-65
2023/12/16 00:08:44;;;;;;;23.48;8.98;;;10.70;72.20;;;;;;5055541;28;20037;-65
2023/12/16 00:11:09;;;;;;;19.17;8.40;;;10.70;72.00;;;;;;5066715;28;20095;-66
2023/12/16 00:13:35;;;;;;;19.50;9.05;;;10.70;71.90;;;;;;5053924;28;20048;-66
2023/12/16 00:16:01;;;;;;;23.15;8.88;;;10.70;71.70;;;;;;5059276;28;20086;-66
2023/12/16 00:18:27;;;;;;;18.55;7.80;;;10.70;71.70;;;;;;5046538;28;20021;-66
2023/12/16 00:20:53;;;;;;;17.58;7.82;;;10.70;71.60;;;;;;5070559;28;20481;-65
2023/12/16 00:23:19;;;;;;;17.48;7.13;;;10.70;71.50;;;;;;5048081;28;20068;-66
2023/12/16 00:25:44;;;;;;;15.88;7.38;;;10.70;71.40;;;;;;5061821;28;20031;-65
2023/12/16 00:28:10;;;;;;;15.15;7.63;;;10.70;71.40;;;;;;5072580;28;20353;-65
2023/12/16 00:30:36;;;;;;;16.20;6.45;;;10.70;71.30;;;;;;5072290;28;20448;-65
2023/12/16 00:33:02;;;;;;;11.88;5.75;;;10.70;71.30;;;;;;5055858;28;20103;-65
2023/12/16 00:35:27;;;;;;;15.32;5.57;;;10.70;71.30;;;;;;5069117;28;20113;-65
2023/12/16 00:37:53;;;;;;;13.95;5.75;;;10.70;71.30;;;;;;5063052;28;20028;-65
2023/12/16 00:40:19;;;;;;;19.95;6.15;;;10.70;71.20;;;;;;5074095;28;20028;-66
2023/12/16 00:42:45;;;;;;;15.27;4.95;;;10.70;71.20;;;;;;5063375;28;20021;-65
2023/12/16 00:45:10;;;;;;;13.32;4.75;;;10.70;71.20;;;;;;5070845;28;20461;-65
2023/12/16 00:47:38;;;;;;;15.38;4.90;;;10.70;71.20;;;;;;5073457;28;20017;-66
2023/12/16 00:50:05;;;;;;;11.95;4.45;;;10.70;71.20;;;;;;5074100;28;20028;-66
2023/12/16 00:52:31;;;;;;;14.32;5.20;;;10.70;71.20;;;;;;5063770;28;20348;-65
2023/12/16 00:54:56;;;;;;;11.57;4.30;;;10.70;71.20;;;;;;5065817;28;20115;-66
2023/12/16 00:57:22;;;;;;;15.18;4.65;;;10.70;71.10;;;;;;5072357;28;20070;-66
2023/12/16 00:59:48;;;;;;;11.70;3.70;;;10.70;71.00;;;;;;5060299;28;20437;-66
2023/12/16 01:02:13;;;;;;;13.65;4.00;;;10.70;71.00;;;;;;5071877;28;20061;-66
2023/12/16 01:04:39;;;;;;;11.45;3.95;;;10.70;71.00;;;;;;5057676;28;20032;-65
2023/12/16 01:07:05;;;;;;;12.85;3.85;;;10.70;71.10;;;;;;5065498;28;20036;-65
2023/12/16 01:09:31;;;;;;;11.80;3.53;;;10.70;71.10;;;;;;5064440;28;20453;-66
2023/12/16 01:11:56;;;;;;;12.40;3.45;;;10.70;71.10;;;;;;5069767;28;20029;-65
2023/12/16 01:14:22;;;;;;;12.23;4.03;;;10.70;71.10;;;;;;5043583;28;20027;-66
2023/12/16 01:16:48;;;;;;;11.07;3.17;;;10.70;71.00;;;;;;5042447;28;20035;-65
2023/12/16 01:19:14;;;;;;;9.90;3.17;;;10.70;71.00;;;;;;5062765;28;20021;-66
2023/12/16 01:21:43;;;;;;;12.20;3.55;;;10.70;70.90;;;;;;5072616;28;20090;-65
2023/12/16 01:24:09;;;;;;;12.55;3.33;;;10.70;70.90;;;;;;5054421;28;20029;-66
2023/12/16 01:26:35;;;;;;;9.48;3.10;;;10.70;70.90;;;;;;5043005;28;20465;-65
2023/12/16 01:29:01;;;;;;;12.32;3.22;;;10.70;70.80;;;;;;5055988;28;20140;-66
2023/12/16 01:31:27;;;;;;;11.15;2.58;;;10.70;70.70;;;;;;5057430;28;20549;-66
2023/12/16 01:33:53;;;;;;;9.73;3.25;;;10.70;70.60;;;;;;5054621;28;20031;-65
2023/12/16 01:36:19;;;;;;;15.80;4.07;;;10.70;70.50;;;;;;5057315;28;20327;-66
2023/12/16 01:38:45;;;;;;;10.20;3.17;;;10.70;70.50;;;;;;5055963;28;20087;-65
2023/12/16 01:41:11;;;;;;;9.50;3.15;;;10.70;70.60;;;;;;5056315;28;20041;-65
2023/12/16 01:43:37;;;;;;;10.70;3.20;;;10.60;70.60;;;;;;5055947;28;20082;-66
2023/12/16 01:46:04;;;;;;;12.20;2.85;;;10.60;70.60;;;;;;5055771;28;20515;-65
2023/12/16 01:48:32;;;;;;;9.05;3.25;;;10.60;70.60;;;;;;5056058;28;20434;-65
2023/12/16 01:50:59;;;;;;;7.22;2.63;;;10.60;70.60;;;;;;5057202;28;20029;-66
2023/12/16 01:53:27;;;;;;;10.88;2.97;;;10.60;70.50;;;;;;5056884;28;20029;-65
2023/12/16 01:55:53;;;;;;;10.45;2.88;;;10.60;70.50;;;;;;5056397;28;20108;-65
2023/12/16 01:58:19;;;;;;;8.90;3.00;;;10.60;70.50;;;;;;5056665;28;20075;-65
2023/12/16 02:00:47;;;;;;;12.40;3.15;;;10.60;70.60;;;;;;5056878;28;20048;-66
2023/12/16 02:03:17;;;;;;;10.43;3.22;;;10.50;70.60;;;;;;5055852;28;20366;-66
2023/12/16 02:05:43;;;;;;;13.38;3.38;;;10.50;70.60;;;;;;5055963;28;20061;-65
2023/12/16 02:08:10;;;;;;;8.98;2.72;;;10.50;70.80;;;;;;5054924;28;20025;-65
2023/12/16 02:10:35;;;;;;;9.55;2.72;;;10.50;70.90;;;;;;5055953;28;20042;-65
2023/12/16 02:13:02;;;;;;;10.38;2.67;;;10.50;71.00;;;;;;5055441;28;20433;-65
2023/12/16 02:15:28;;;;;;;12.68;3.65;;;10.40;70.90;;;;;;5054787;28;20021;-65
2023/12/16 02:17:54;;;;;;;12.25;3.10;;;10.40;71.00;;;;;;5055125;28;20023;-65
2023/12/16 02:20:20;;;;;;;9.63;2.85;;;10.40;71.00;;;;;;5056617;28;20112;-65
2023/12/16 02:22:47;;;;;;;11.20;2.88;;;10.40;71.00;;;;;;5056533;28;20021;-65
2023/12/16 02:25:14;;;;;;;8.20;2.90;;;10.40;70.90;;;;;;5054359;28;20287;-66
2023/12/16 02:27:44;;;;;;;17.20;3.95;;;10.40;70.90;;;;;;5048893;28;20029;-65
2023/12/16 02:30:11;;;;;;;13.20;3.10;;;10.40;70.90;;;;;;5050375;28;20128;-65
2023/12/16 02:32:37;;;;;;;12.10;3.13;;;10.40;70.90;;;;;;5055088;28;20448;-65
2023/12/16 02:35:03;;;;;;;9.90;2.95;;;10.40;70.80;;;;;;5053429;28;20091;-65
2023/12/16 02:37:32;;;;;;;11.82;3.55;;;10.40;70.70;;;;;;5051187;28;20025;-65
2023/12/16 02:39:57;;;;;;;11.18;3.50;;;10.40;70.70;;;;;;5053046;28;20060;-65
2023/12/16 02:42:23;;;;;;;10.65;3.38;;;10.40;70.70;;;;;;5054967;28;20068;-65
2023/12/16 02:44:49;;;;;;;11.88;3.00;;;10.30;70.70;;;;;;5054825;28;20457;-65
2023/12/16 02:47:15;;;;;;;13.57;4.18;;;10.40;70.70;;;;;;5051809;28;20505;-65
2023/12/16 02:49:40;;;;;;;13.02;3.33;;;10.30;70.70;;;;;;5054847;28;20076;-65
2023/12/16 02:52:06;;;;;;;12.85;2.95;;;10.30;70.70;;;;;;5054768;28;20025;-65
2023/12/16 02:54:32;;;;;;;11.65;3.28;;;10.30;70.70;;;;;;5055757;28;20484;-65
2023/12/16 02:56:58;;;;;;;10.82;3.05;;;10.20;70.70;;;;;;5054882;28;20036;-65
2023/12/16 02:59:24;;;;;;;13.77;3.50;;;10.20;70.70;;;;;;5054347;28;20373;-65
2023/12/16 03:01:50;;;;;;;7.47;2.80;;;10.20;70.70;;;;;;5055796;28;20029;-65
2023/12/16 03:04:16;;;;;;;13.52;3.65;;;10.20;70.70;;;;;;5054418;28;20040;-65
2023/12/16 03:06:42;;;;;;;12.82;3.42;;;10.20;70.80;;;;;;5053806;28;20331;-65
2023/12/16 03:09:09;;;;;;;10.63;3.88;;;10.20;70.70;;;;;;5055389;28;20044;-65
2023/12/16 03:11:34;;;;;;;11.82;3.78;;;10.20;70.70;;;;;;5055585;28;20519;-65
2023/12/16 03:14:00;;;;;;;11.38;4.30;;;10.20;70.70;;;;;;5054807;28;20060;-66
2023/12/16 03:16:26;;;;;;;10.52;3.63;;;10.20;70.70;;;;;;5054413;28;20450;-65
2023/12/16 03:18:52;;;;;;;10.52;4.05;;;10.10;70.60;;;;;;5053772;28;20174;-65
2023/12/16 03:21:17;;;;;;;9.48;4.25;;;10.20;70.70;;;;;;5055919;28;20393;-65
2023/12/16 03:23:43;;;;;;;10.68;3.63;;;10.20;70.60;;;;;;5055478;28;20087;-65
2023/12/16 03:26:09;;;;;;;10.73;4.20;;;10.20;70.60;;;;;;5055389;28;20454;-65
2023/12/16 03:28:35;;;;;;;14.85;4.85;;;10.10;70.50;;;;;;5052941;28;20021;-65
2023/12/16 03:31:01;;;;;;;12.48;4.32;;;10.10;70.60;;;;;;5065138;28;20120;-65
2023/12/16 03:33:26;;;;;;;14.30;4.15;;;10.10;70.60;;;;;;5055229;28;20021;-65
2023/12/16 03:35:52;;;;;;;12.90;4.63;;;10.10;70.60;;;;;;5037011;28;20563;-65
2023/12/16 03:38:18;;;;;;;13.82;4.50;;;10.10;70.60;;;;;;5053639;28;20083;-66
2023/12/16 03:40:44;;;;;;;11.75;4.57;;;10.10;70.60;;;;;;5036661;28;20028;-65
2023/12/16 03:43:10;;;;;;;10.35;4.30;;;10.10;70.70;;;;;;5053798;28;20064;-65
2023/12/16 03:45:36;;;;;;;13.40;4.95;;;10.10;70.60;;;;;;5054890;28;20052;-66
2023/12/16 03:48:02;;;;;;;16.35;5.28;;;10.00;70.60;;;;;;5054108;28;20017;-65
2023/12/16 03:50:27;;;;;;;16.48;4.50;;;10.00;70.60;;;;;;5053686;28;20358;-65
2023/12/16 03:52:53;;;;;;;9.07;4.47;;;10.00;70.60;;;;;;5053866;28;20045;-65
2023/12/16 03:55:20;;;;;;;9.48;4.18;;;10.00;70.60;;;;;;5054525;28;20120;-65
2023/12/16 03:57:45;;;;;;;12.90;4.82;;;10.00;70.60;;;;;;5036678;28;20514;-65
2023/12/16 04:00:12;;;;;;;11.40;4.43;;;10.00;70.60;;;;;;5043039;28;20123;-65
2023/12/16 04:02:37;;;;;;;13.18;4.57;;;10.00;70.60;;;;;;5061521;28;20048;-65
2023/12/16 04:05:03;;;;;;;14.82;5.60;;;10.00;71.30;;;;;;5060569;28;20529;-65
2023/12/16 04:07:29;;;;;;;14.57;4.85;;;10.00;70.60;;;;;;5074279;28;20036;-65
2023/12/16 04:09:55;;;;;;;11.65;4.35;;;10.00;70.50;;;;;;5060544;28;20357;-65
2023/12/16 04:12:21;;;;;;;11.95;3.80;;;10.00;70.50;;;;;;5057808;28;20362;-65
2023/12/16 04:14:46;;;;;;;13.90;4.93;;;10.00;70.40;;;;;;5053785;28;20045;-65
2023/12/16 04:17:12;;;;;;;13.98;5.10;;;10.00;70.40;;;;;;5073579;28;20086;-65
2023/12/16 04:19:38;;;;;;;13.57;4.45;;;10.00;70.40;;;;;;5060423;28;20118;-65
2023/12/16 04:22:04;;;;;;;13.52;4.63;;;10.00;70.40;;;;;;5054458;28;20082;-65
2023/12/16 04:24:30;;;;;;;12.27;4.57;;;10.00;70.40;;;;;;5062606;28;20032;-65
2023/12/16 04:26:56;;;;;;;12.40;4.18;;;10.00;70.30;;;;;;5071838;28;20036;-66
2023/12/16 04:29:22;;;;;;;15.93;4.63;;;10.00;70.30;;;;;;5063701;28;20041;-66
2023/12/16 04:31:47;;;;;;;12.18;4.45;;;10.00;70.40;;;;;;5056679;28;20021;-65
2023/12/16 04:34:13;;;;;;;14.82;4.70;;;10.00;71.10;;;;;;5052128;28;20423;-65
2023/12/16 04:36:39;;;;;;;12.05;5.32;;;10.00;70.40;;;;;;5056546;28;20365;-65
2023/12/16 04:39:07;;;;;;;16.20;4.35;;;10.00;70.40;;;;;;5064316;28;20032;-66
2023/12/16 04:41:33;;;;;;;11.82;4.57;;;10.00;70.40;;;;;;5052705;28;20462;-63
2023/12/16 04:43:59;;;;;;;11.88;3.92;;;10.00;70.40;;;;;;5064707;28;20102;-62
2023/12/16 04:46:25;;;;;;;11.63;4.10;;;10.00;70.40;;;;;;5068544;28;20425;-63
2023/12/16 04:48:51;;;;;;;12.82;4.20;;;10.00;70.40;;;;;;5066207;28;20048;-63
2023/12/16 04:51:19;;;;;;;11.57;5.10;;;10.00;70.40;;;;;;5060398;28;20035;-63
2023/12/16 04:53:45;;;;;;;12.75;4.65;;;10.00;70.40;;;;;;5049177;28;20112;-63
2023/12/16 04:56:11;;;;;;;10.60;4.10;;;10.00;70.50;;;;;;5048385;28;20148;-63
2023/12/16 04:58:36;;;;;;;18.38;5.40;;;10.00;70.60;;;;;;5030541;28;20073;-63
2023/12/16 05:01:03;;;;;;;13.23;4.95;;;10.00;70.60;;;;;;5033027;28;20458;-63
2023/12/16 05:03:31;;;;;;;13.82;4.45;;;10.00;70.60;;;;;;5039450;28;20056;-63
2023/12/16 05:05:57;;;;;;;12.90;4.63;;;10.00;70.60;;;;;;5034011;28;20467;-63
2023/12/16 05:08:23;;;;;;;15.07;5.22;;;10.00;70.70;;;;;;5044652;28;20046;-62
2023/12/16 05:10:49;;;;;;;15.25;4.72;;;9.90;70.70;;;;;;5037163;28;20366;-63
2023/12/16 05:13:15;;;;;;;14.57;4.70;;;9.90;70.80;;;;;;5040700;28;20025;-62
2023/12/16 05:15:41;;;;;;;14.43;4.88;;;9.90;70.90;;;;;;5044513;28;20094;-63
2023/12/16 05:18:07;;;;;;;10.90;4.63;;;9.90;71.00;;;;;;5022112;28;20473;-62
2023/12/16 05:20:34;;;;;;;10.93;4.60;;;9.90;71.00;;;;;;5037817;28;20033;-62
2023/12/16 05:23:00;;;;;;;11.75;4.43;;;9.90;71.10;;;;;;5036330;28;20036;-62
2023/12/16 05:25:29;;;;;;;14.05;4.95;;;9.80;71.00;;;;;;5036489;28;20454;-62
2023/12/16 05:27:56;;;;;;;11.68;4.40;;;9.80;71.10;;;;;;5040148;28;20037;-65
2023/12/16 05:30:23;;;;;;;9.98;4.70;;;9.80;71.10;;;;;;5038032;28;20091;-65
2023/12/16 05:32:49;;;;;;;11.10;4.32;;;9.90;71.10;;;;;;5037108;28;20029;-65
2023/12/16 05:35:15;;;;;;;11.80;3.92;;;9.90;71.20;;;;;;5032308;28;20037;-65
2023/12/16 05:37:41;;;;;;;11.20;4.35;;;9.90;71.20;;;;;;5040052;28;20036;-65
2023/12/16 05:40:07;;;;;;;13.77;5.65;;;9.90;71.20;;;;;;5035601;28;20036;-65
2023/12/16 05:42:33;;;;;;;12.40;3.83;;;9.90;71.30;;;;;;5038007;28;20035;-65
2023/12/16 05:44:58;;;;;;;11.80;4.55;;;9.90;71.30;;;;;;5036884;28;20381;-65
2023/12/16 05:47:25;;;;;;;12.48;4.45;;;9.90;71.30;;;;;;5045959;28;20137;-65
2023/12/16 05:49:50;;;;;;;10.65;4.30;;;9.80;71.40;;;;;;5039754;28;20029;-65
2023/12/16 05:52:16;;;;;;;12.20;4.25;;;9.80;71.40;;;;;;5039194;28;20017;-65
2023/12/16 05:54:42;;;;;;;12.15;4.30;;;9.80;71.50;;;;;;5043459;28;20035;-65
2023/12/16 05:57:08;;;;;;;12.13;3.70;;;9.80;71.50;;;;;;5054928;28;20087;-65
2023/12/16 05:59:34;;;;;;;16.48;5.30;;;9.80;71.50;;;;;;5051351;28;20029;-65
2023/12/16 06:02:00;;;;;;;15.70;4.43;;;9.80;71.60;;;;;;5055378;28;20025;-67
2023/12/16 06:04:26;;;;;;;12.77;4.57;;;9.80;71.70;;;;;;5056328;28;20025;-65
2023/12/16 06:06:52;;;;;;;13.65;5.47;;;9.80;71.80;;;;;;5055595;28;20036;-65
2023/12/16 06:09:18;;;;;;;13.93;4.68;;;9.80;71.80;;;;;;5056329;28;20032;-65
2023/12/16 06:11:43;;;;;;;12.32;4.25;;;9.70;71.90;;;;;;5056390;28;20029;-65
2023/12/16 06:14:09;;;;;;;16.92;4.68;;;9.70;71.90;;;;;;5054420;28;20111;-65
2023/12/16 06:16:35;;;;;;;12.98;4.55;;;9.70;72.00;;;;;;5055588;28;20033;-66
2023/12/16 06:19:03;;;;;;;13.30;4.50;;;9.70;72.10;;;;;;5054994;28;20365;-65
2023/12/16 06:21:32;;;;;;;10.05;3.67;;;9.70;72.10;;;;;;5054129;28;20039;-65
2023/12/16 06:23:58;;;;;;;13.57;4.20;;;9.70;72.10;;;;;;5060410;28;20347;-65
2023/12/16 06:26:24;;;;;;;12.60;4.45;;;9.70;72.10;;;;;;5055044;28;20040;-65
2023/12/16 06:28:50;;;;;;;19.33;5.63;;;9.70;72.20;;;;;;5055780;28;20028;-65
2023/12/16 06:31:16;;;;;;;15.18;4.57;;;9.70;72.30;;;;;;5055379;28;20041;-65
2023/12/16 06:33:43;;;;;;;17.13;5.50;;;9.70;72.30;;;;;;5055043;28;20079;-64
2023/12/16 06:36:09;;;;;;;14.68;4.57;;;9.70;72.30;;;;;;5038411;28;20457;-65
2023/12/16 06:38:35;;;;;;;16.58;4.05;;;9.70;72.40;;;;;;5055814;28;20029;-65
2023/12/16 06:41:02;;;;;;;12.40;3.97;;;9.60;72.50;;;;;;5053867;28;20032;-64
2023/12/16 06:43:27;;;;;;;15.45;5.03;;;9.60;72.50;;;;;;5047263;28;20017;-65
2023/12/16 06:45:54;;;;;;;11.80;4.63;;;9.60;72.50;;;;;;5054668;28;20365;-65
2023/12/16 06:48:21;;;;;;;13.30;4.30;;;9.60;72.60;;;;;;5055851;28;20021;-65
2023/12/16 06:50:46;;;;;;;19.77;5.28;;;9.60;72.70;;;;;;5054998;28;20093;-65
2023/12/16 06:53:12;;;;;;;16.27;4.93;;;9.60;72.80;;;;;;5047502;28;20104;-65
2023/12/16 06:55:38;;;;;;;14.35;4.93;;;9.60;72.80;;;;;;5049325;28;20457;-65
2023/12/16 06:58:04;;;;;;;14.57;4.07;;;9.60;72.90;;;;;;5056061;28;20044;-64
2023/12/16 07:00:30;;;;;;;12.40;4.53;;;9.50;72.90;;;;;;5055960;28;20025;-65
2023/12/16 07:02:56;;;;;;;17.27;4.72;;;9.60;73.00;;;;;;5054370;28;20032;-65
2023/12/16 07:05:22;;;;;;;12.07;4.65;;;9.60;72.90;;;;;;5055961;28;20307;-65
2023/12/16 07:07:48;;;;;;;14.27;5.15;;;9.60;73.00;;;;;;5055865;28;20358;-65
2023/12/16 07:10:13;;;;;;;15.23;5.05;;;9.50;73.00;;;;;;5055010;28;20029;-65
2023/12/16 07:12:39;;;;;;;11.63;4.60;;;9.50;73.00;;;;;;5037640;28;20056;-64
2023/12/16 07:15:06;;;;;;;13.05;4.72;;;9.50;73.10;;;;;;5055050;28;20120;-65
2023/12/16 07:17:32;;;;;;;14.98;4.45;;;9.50;73.10;;;;;;5055305;28;20394;-64
2023/12/16 07:19:57;;;;;;;13.10;4.00;;;9.50;73.10;;;;;;5055610;28;20060;-65
2023/12/16 07:22:23;;;;;;;14.25;4.40;;;9.50;73.10;;;;;;5054836;28;20047;-65
2023/12/16 07:24:49;;;;;;;14.07;5.20;;;9.50;73.10;;;;;;5055078;28;20056;-64
2023/12/16 07:27:15;;;;;;;13.52;4.28;;;9.50;73.10;;;;;;5055882;28;20032;-65
2023/12/16 07:29:42;;;;;;;13.73;5.15;;;9.50;73.10;;;;;;5055271;28;20049;-65
2023/12/16 07:32:08;;;;;;;15.05;4.57;;;9.50;73.20;;;;;;5055463;28;20028;-66
2023/12/16 07:34:34;;;;;;;15.68;5.68;;;9.50;73.20;;;;;;5052688;28;20358;-66
2023/12/16 07:36:59;;;;;;;14.57;5.05;;;9.50;73.30;;;;;;5050316;28;20037;-67
2023/12/16 07:39:25;;;;;;;14.55;4.78;;;9.50;73.30;;;;;;5055064;28;20029;-66
2023/12/16 07:41:51;;;;;;;14.18;4.15;;;9.60;73.30;;;;;;5054870;28;20040;-66
2023/12/16 07:44:16;;;;;;;15.93;5.63;;;9.60;73.20;;;;;;5053374;28;20056;-66
2023/12/16 07:46:42;;;;;;;16.23;4.93;;;9.60;73.10;;;;;;5054030;28;20105;-67
2023/12/16 07:49:08;;;;;;;13.77;4.28;;;9.60;73.10;;;;;;5053871;28;20116;-67
2023/12/16 07:51:36;;;;;;;12.98;4.72;;;9.60;73.10;;;;;;5053321;28;20076;-65
2023/12/16 07:54:02;;;;;;;15.10;4.43;;;9.60;73.10;;;;;;5053190;28;20024;-65
2023/12/16 07:56:28;;;;;;;12.85;4.68;;;9.60;73.00;;;;;;5054215;28;20032;-66
2023/12/16 07:58:54;;;;;;;15.38;4.30;;;9.70;73.10;;;;;;5054583;28;20029;-66
2023/12/16 08:01:20;;;;;;;10.65;3.85;;;9.70;73.00;;;;;;5054930;28;20079;-65
2023/12/16 08:03:47;;;;;;;14.55;3.97;;;9.70;73.10;;;;;;5053929;28;20055;-65
2023/12/16 08:06:17;;;;;;;15.45;4.82;;;9.70;73.00;;;;;;5047958;28;20040;-66
2023/12/16 08:08:43;;;;;;;13.30;5.22;;;9.70;73.00;;;;;;5056513;28;20114;-65
2023/12/16 08:11:10;;;;;;;12.85;4.15;;;9.70;73.00;;;;;;5054665;28;20033;-66
2023/12/16 08:13:36;;;;;;;14.15;4.35;;;9.70;73.10;;;;;;5054390;28;20044;-66
2023/12/16 08:16:04;;;;;;;13.90;5.07;;;9.70;73.00;;;;;;5051432;28;20060;-65
2023/12/16 08:18:31;;;;;;;13.05;3.72;;;9.70;73.10;;;;;;5054567;28;20033;-66
2023/12/16 08:20:57;;;;;;;11.20;4.10;;;9.70;73.10;;;;;;5053185;28;20029;-66
2023/12/16 08:23:23;;;;;;;14.43;3.80;;;9.70;73.10;;;;;;5053502;28;20039;-67
2023/12/16 08:25:49;;;;;;;10.60;4.22;;;9.80;73.10;;;;;;5053897;28;20124;-66
2023/12/16 08:28:16;;;;;;;11.80;3.70;;;9.80;73.10;;;;;;5054486;28;20095;-65
2023/12/16 08:30:44;;;;;;;12.98;4.78;;;9.90;73.00;;;;;;5054220;28;20088;-66
2023/12/16 08:33:10;;;;;;;13.93;3.72;;;10.00;72.90;;;;;;5054310;28;20025;-66
2023/12/16 08:35:36;;;;;;;13.15;4.45;;;10.00;72.90;;;;;;5054012;28;20434;-65
2023/12/16 08:38:03;;;;;;;16.20;4.55;;;10.00;72.80;;;;;;5052818;28;20029;-66
2023/12/16 08:40:29;;;;;;;10.43;3.60;;;10.00;72.70;;;;;;5048215;28;20061;-65
2023/12/16 08:42:54;;;;;;;9.25;3.47;;;10.00;72.70;;;;;;5054257;28;20064;-65
2023/12/16 08:45:20;;;;;;;13.25;4.60;;;10.00;72.70;;;;;;5053687;28;20121;-65
2023/12/16 08:47:46;;;;;;;15.07;4.65;;;10.10;72.70;;;;;;5054345;28;20029;-65
2023/12/16 08:50:12;;;;;;;13.65;4.07;;;10.10;72.70;;;;;;5054033;28;20054;-65
2023/12/16 08:52:38;;;;;;;13.70;3.63;;;10.30;72.70;;;;;;5053393;28;20453;-65
2023/12/16 08:55:04;;;;;;;14.32;4.13;;;10.40;72.40;;;;;;5061681;28;20342;-65
2023/12/16 08:57:31;;;;;;;10.77;3.55;;;10.40;72.20;;;;;;5040673;28;20488;-65
2023/12/16 08:59:57;;;;;;;9.93;4.10;;;10.40;72.20;;;;;;5054745;28;20136;-65
2023/12/16 09:02:23;;;;;;;13.05;3.63;;;10.40;72.30;;;;;;5053211;28;20480;-66
2023/12/16 09:04:50;;;;;;;11.55;4.00;;;10.40;72.30;;;;;;5053141;28;20031;-65
2023/12/16 09:07:16;;;;;;;12.70;4.05;;;10.40;72.30;;;;;;5052378;28;20097;-66
2023/12/16 09:09:43;;;;;;;14.20;3.63;;;10.40;72.40;;;;;;5054353;28;20029;-65
2023/12/16 09:12:09;;;;;;;11.48;3.40;;;10.40;72.50;;;;;;5053648;28;20149;-66
2023/12/16 09:14:34;;;;;;;16.25;4.35;;;10.40;72.50;;;;;;5053248;28;20422;-65
2023/12/16 09:17:00;;;;;;;12.57;3.70;;;10.50;72.60;;;;;;5053595;28;20029;-65
2023/12/16 09:19:26;;;;;;;10.88;3.67;;;10.40;72.60;;;;;;5057719;28;20083;-65
2023/12/16 09:21:52;;;;;;;12.77;3.40;;;10.40;72.70;;;;;;5058470;28;20381;-65
2023/12/16 09:24:18;;;;;;;15.82;3.70;;;10.40;72.70;;;;;;5040357;28;20036;-66
2023/12/16 09:26:44;;;;;;;15.07;4.55;;;10.50;72.70;;;;;;5057828;28;20128;-65
2023/12/16 09:29:11;;;;;;;12.25;3.75;;;10.50;72.70;;;;;;5062456;28;20033;-66
2023/12/16 09:31:37;;;;;;;11.98;3.78;;;10.50;72.70;;;;;;5063114;28;20021;-65
2023/12/16 09:34:04;;;;;;;12.65;3.80;;;10.50;72.80;;;;;;5056864;28;20033;-66
2023/12/16 09:36:30;;;;;;;15.70;3.30;;;10.50;72.80;;;;;;5056937;28;20401;-65
2023/12/16 09:38:57;;;;;;;13.05;4.10;;;10.50;72.90;;;;;;5057359;28;20048;-65
2023/12/16 09:41:38;;;;;;;12.30;3.95;;;10.50;73.00;;;;;;5058173;28;20025;-65
2023/12/16 09:44:05;;;;;;;15.27;4.18;;;10.50;73.00;;;;;;5056774;28;20131;-66
2023/12/16 09:46:32;;;;;;;13.43;3.97;;;10.50;73.00;;;;;;5056674;28;20045;-65
2023/12/16 09:48:59;;;;;;;14.68;3.80;;;10.50;73.20;;;;;;5056651;28;20029;-65
2023/12/16 09:51:25;;;;;;;14.98;4.78;;;10.50;73.20;;;;;;5022922;28;20509;-65
2023/12/16 09:53:52;;;;;;;12.73;4.15;;;10.50;73.20;;;;;;5056275;28;20033;-66
2023/12/16 09:56:18;;;;;;;13.13;4.97;;;10.50;73.30;;;;;;5057585;28;20032;-65
2023/12/16 09:58:48;;;;;;;13.43;4.80;;;10.50;73.40;;;;;;5056480;28;20021;-65
2023/12/16 10:01:17;;;;;;;14.93;4.75;;;10.50;73.60;;;;;;5056418;28;20090;-66
2023/12/16 10:03:45;;;;;;;13.43;4.85;;;10.50;73.70;;;;;;5056213;28;20095;-65
2023/12/16 10:06:11;;;;;;;14.20;4.93;;;10.50;73.80;;;;;;5056115;28;20120;-65
2023/12/16 10:08:38;;;;;;;19.48;5.25;;;10.50;73.90;;;;;;5048968;28;20057;-65
2023/12/16 10:11:05;;;;;;;14.40;5.28;;;10.50;74.10;;;;;;5076591;28;20319;-65
2023/12/16 10:13:57;;;;;;;13.35;5.13;;;10.50;74.20;;;;;;5076251;28;20506;-65
2023/12/16 10:16:24;;;;;;;16.17;5.53;;;10.50;74.20;;;;;;5077124;28;20071;-65
2023/12/16 10:18:54;;;;;;;17.98;5.18;;;10.50;74.30;;;;;;5072769;28;20111;-65
2023/12/16 10:21:22;;;;;;;15.30;5.63;;;10.50;74.50;;;;;;5059359;28;20078;-66
2023/12/16 10:23:48;;;;;;;18.05;5.32;;;10.50;74.50;;;;;;5076781;28;20069;-65
2023/12/16 10:26:14;;;;;;;15.07;5.40;;;10.50;74.60;;;;;;5075601;28;20028;-66
2023/12/16 10:28:40;;;;;;;16.77;5.60;;;10.50;74.70;;;;;;5069698;28;20027;-65
2023/12/16 10:31:05;;;;;;;15.43;5.78;;;10.50;74.80;;;;;;5054684;28;20037;-65
2023/12/16 10:33:31;;;;;;;13.25;5.65;;;10.50;74.90;;;;;;5056969;28;20029;-65
2023/12/16 10:35:57;;;;;;;16.73;5.53;;;10.50;75.00;;;;;;5056767;28;20430;-65
2023/12/16 10:38:25;;;;;;;17.42;6.20;;;10.50;75.10;;;;;;5060644;28;20070;-65
2023/12/16 10:40:52;;;;;;;13.85;5.45;;;10.50;75.30;;;;;;5069654;28;20118;-65
2023/12/16 10:43:18;;;;;;;15.15;6.38;;;10.60;75.40;;;;;;5076764;28;20021;-66
2023/12/16 10:45:44;;;;;;;14.98;5.88;;;10.60;75.50;;;;;;5071648;28;20318;-66
2023/12/16 10:48:11;;;;;;;18.70;5.70;;;10.60;75.50;;;;;;5078884;28;20420;-66
2023/12/16 10:50:45;;;;;;;17.95;6.07;;;10.70;75.70;;;;;;5064397;28;20025;-66
2023/12/16 10:53:26;;;;;;;17.17;6.70;;;10.70;75.80;;;;;;5079189;28;20035;-66
2023/12/16 10:55:59;;;;;;;20.25;6.85;;;10.70;75.90;;;;;;5068177;28;20037;-66
2023/12/16 10:58:27;;;;;;;14.07;6.10;;;10.70;76.10;;;;;;5066896;28;20028;-67
2023/12/16 11:01:03;;;;;;;14.82;7.70;;;10.70;76.10;;;;;;5065807;28;20515;-66
2023/12/16 11:03:55;;;;;;;17.42;6.55;;;10.80;76.30;;;;;;5076621;28;20037;-65
2023/12/16 11:06:35;;;;;;;12.25;6.63;;;10.80;76.30;;;;;;5071607;28;20045;-65
2023/12/16 11:09:02;;;;;;;16.55;7.57;;;10.80;76.40;;;;;;5075710;28;20020;-65
2023/12/16 11:11:29;;;;;;;22.98;7.55;;;10.80;76.50;;;;;;5063801;28;20036;-65
2023/12/16 11:13:56;;;;;;;16.85;7.78;;;10.80;76.60;;;;;;5047744;28;21592;-65
2023/12/16 11:16:36;;;;;;;22.58;8.70;;;10.80;76.70;;;;;;5056204;28;20048;-65
2023/12/16 11:19:04;;;;;;;16.08;7.30;;;10.80;76.90;;;;;;5073503;28;20028;-65
2023/12/16 11:21:30;;;;;;;18.67;7.70;;;10.80;77.00;;;;;;5055836;28;20025;-67
2023/12/16 11:23:57;;;;;;;19.70;7.15;;;10.80;77.10;;;;;;5075222;28;20449;-65
2023/12/16 11:26:25;;;;;;;16.77;7.65;;;10.80;77.30;;;;;;5074908;28;20055;-65
2023/12/16 11:28:54;;;;;;;16.60;7.20;;;10.80;77.50;;;;;;5074723;28;20043;-65
2023/12/16 11:31:19;;;;;;;18.35;8.27;;;10.80;77.70;;;;;;5054408;28;20353;-65
2023/12/16 11:33:47;;;;;;;20.33;8.13;;;10.80;77.80;;;;;;5048929;28;20031;-65
2023/12/16 11:36:16;;;;;;;18.48;7.28;;;10.80;78.00;;;;;;5053115;28;20108;-65
2023/12/16 11:38:44;;;;;;;15.65;7.43;;;10.80;78.10;;;;;;5053457;28;20064;-65
2023/12/16 11:41:26;;;;;;;16.52;7.03;;;10.80;78.20;;;;;;5055309;28;20031;-66
2023/12/16 11:43:53;;;;;;;22.55;8.25;;;10.90;78.40;;;;;;5054503;28;20037;-66
2023/12/16 11:46:35;;;;;;;18.95;7.53;;;10.80;78.50;;;;;;5054279;28;20025;-65
2023/12/16 11:49:07;;;;;;;20.70;7.53;;;10.80;78.80;;;;;;5050809;28;20394;-65
2023/12/16 11:51:34;;;;;;;15.70;7.68;;;10.80;78.90;;;;;;5054876;28;20341;-65
2023/12/16 11:54:01;;;;;;;16.60;7.07;;;10.80;79.00;;;;;;5052653;28;20027;-65
2023/12/16 11:56:27;;;;;;;17.17;8.18;;;10.80;79.10;;;;;;5053260;28;20067;-65
2023/12/16 11:58:57;;;;;;;17.77;8.43;;;10.80;79.30;;;;;;5054560;28;20041;-66
2023/12/16 12:01:27;;;;;;;17.77;9.07;;;10.80;79.40;;;;;;5055205;28;20024;-65
2023/12/16 12:03:56;;;;;;;18.08;8.48;;;10.80;79.60;;;;;;5053744;28;20108;-65
2023/12/16 12:06:22;;;;;;;21.60;8.35;;;10.80;79.70;;;;;;5053173;28;20031;-65
2023/12/16 12:08:48;;;;;;;15.23;7.75;;;10.80;79.90;;;;;;5054513;28;20366;-65
2023/12/16 12:11:16;;;;;;;19.13;9.15;;;10.80;79.90;;;;;;5054233;28;20104;-65
2023/12/16 12:13:43;;;;;;;13.15;7.20;;;10.80;80.10;;;;;;5054250;28;20326;-65
2023/12/16 12:16:12;;;;;;;17.42;8.52;;;10.80;80.10;;;;;;5052554;28;20025;-66
2023/12/16 12:18:41;;;;;;;18.50;8.07;;;10.80;80.20;;;;;;5053798;28;20021;-65
2023/12/16 12:21:09;;;;;;;17.40;9.00;;;10.80;80.30;;;;;;5053323;28;20442;-66
2023/12/16 12:23:37;;;;;;;18.27;8.02;;;10.80;80.50;;;;;;5053389;28;20091;-65
2023/12/16 12:26:03;;;;;;;18.48;8.95;;;10.80;80.50;;;;;;5052919;28;20037;-66
2023/12/16 12:28:29;;;;;;;18.77;9.48;;;10.80;80.50;;;;;;5053901;28;20465;-66
2023/12/16 12:31:07;;;;;;;15.70;8.35;;;10.80;80.60;;;;;;5053904;28;20064;-66
2023/12/16 12:33:34;;;;;;;20.50;8.65;;;10.80;80.70;;;;;;5053786;28;20043;-66
2023/12/16 12:36:01;;;;;;;17.83;9.20;;;10.80;80.70;;;;;;5052350;28;20050;-65
2023/12/16 12:38:32;;;;;;;21.20;10.00;;;10.80;80.70;;;;;;5047076;28;20430;-66